KFLG/FLG METAR and TAF weather

Enter ICAO airport designator
Station Type Date Time Source
KFLG METAR 2019/04/21 21:57 UTC NOAA

KFLG 212157Z 22018G29KT 10SM CLR 17/M04 A3000 RMK AO2 PK WND 21032/2135 SLP079 T01671044


Station Type Date Time Source
KFLG Decoded METAR 2019/04/21 21:57 UTC NOAA

FLAGSTAFF PULLIAM AIRPORT, AZ, United States (KFLG) 35-08N 111-40W 2134M
Apr 21, 2019 - 05:57 PM EDT / 2019.04.21 2157 UTC
Wind: from the SW (220 degrees) at 21 MPH (18 KT) gusting to 33 MPH (29 KT):0
Visibility: 10 mile(s):0
Sky conditions: clear
Temperature: 62.1 F (16.7 C)
Dew Point: 24.1 F (-4.4 C)
Relative Humidity: 23%
Pressure (altimeter): 30 in. Hg (1015 hPa)
ob: KFLG 212157Z 22018G29KT 10SM CLR 17/M04 A3000 RMK AO2 PK WND 21032/2135 SLP079 T01671044
cycle: 22

Station Type Date Time Source
KFLG TAF 2019/04/21 18:34 UTC NOAA

TAF KFLG 211731Z 2118/2218 22015G25KT P6SM SKC
FM220300 22006KT P6SM SKC

Example: see airport list